Sacramento, California
Traffic Map
Current Weather Conditions
Sacramento, California
Clear
Clear
20°
Feels Like: 20°
Wind Chill: 20° Ceiling: Unl
Heat Index: 20° Visibility: 10mi
Dew Point: 10° Wind: 0mph
Humidity: 52% Direction: ° ()
Pressure: 29.81in Gusts: 0mph
Raw Report DataKSAC 290853Z AUTO 00000KT 10SM CLR 20/10 A2981 RMK AO2 SLP093 T02000100 53000
Traffic Incident Summary
Active as of:
Severity:
Category:
InformationThere was an issue retrieving the traffic information for this location. Please try a different location or try again shortly.
Advertisements
Track Severe Weather on mobile